Loughman, Florida
Current Conditions -  °F | °C
As of 7:50 AM on Sunday 23 Nov 2014 (Local Time) from KISM Reporting Station
Light Rain Light Rain  
Wind Chill: 22°   Ceiling: Unl
Heat Index: 22°   Visibility: 7mi
Dew Point: 21°   Wind: 6mph
Humidity: 94%   Direction: 150°SSE
Pressure: 30.02"   Gusts: NA
Location:  28.24°N, 81.57°W
Report Text: KISM 231250Z 15005KT 7SM -RA 0VC006 22/21 A3002 RMK RAB25
Loading
Personal Weather Stations






























Interactive Weather Map New forecast layout! Learn more

10-Day Weather Forecast

Advertisements
Track Severe Weather on mobile